Time;durP1;ratioP1;P1;durP2;ratioP2;P2;SDS_P1;SDS_P2;PMS_P1;PMS_P2;Temp;Humidity;BMP_temperature;BMP_pressure;BME280_temperature;BME280_humidity;BME280_pressure;Samples;Min_cycle;Max_cycle;Signal;HPM_P1;HPM_P2
2023/11/24 00:00:51;;;;;;;6.97;6.07;;;;;;;;;;5024240;28;20187;-45
2023/11/24 00:03:18;;;;;;;7.35;6.65;;;;;;;;;;5026091;28;20222;-45
2023/11/24 00:05:44;;;;;;;7.82;7.05;;;;;;;;;;5022141;28;20543;-45
2023/11/24 00:08:10;;;;;;;7.82;6.75;;;;;;;;;;5017763;28;20192;-45
2023/11/24 00:10:36;;;;;;;8.17;7.37;;;;;;;;;;5025316;28;20178;-45
2023/11/24 00:13:02;;;;;;;9.23;8.32;;;;;;;;;;5022664;28;20419;-45
2023/11/24 00:15:28;;;;;;;11.27;9.63;;;;;;;;;;5025477;28;20172;-45
2023/11/24 00:17:54;;;;;;;6.75;5.55;;;;;;;;;;5017862;28;20477;-45
2023/11/24 00:20:21;;;;;;;7.30;6.13;;;;;;;;;;5024187;28;20573;-45
2023/11/24 00:22:48;;;;;;;7.85;6.97;;;;;;;;;;5019851;28;20918;-45
2023/11/24 00:25:14;;;;;;;8.07;6.93;;;;;;;;;;5023266;28;20182;-45
2023/11/24 00:27:40;;;;;;;8.07;6.87;;;;;;;;;;5024288;28;20714;-45
2023/11/24 00:30:07;;;;;;;8.50;7.23;;;;;;;;;;5020734;28;20533;-45
2023/11/24 00:32:34;;;;;;;8.45;7.20;;;;;;;;;;5022958;28;20429;-45
2023/11/24 00:35:01;;;;;;;6.78;6.07;;;;;;;;;;5004265;28;20176;-45
2023/11/24 00:37:27;;;;;;;10.55;9.20;;;;;;;;;;5020510;28;20212;-44
2023/11/24 00:39:55;;;;;;;9.00;8.10;;;;;;;;;;5021834;28;20588;-45
2023/11/24 00:42:21;;;;;;;8.18;7.38;;;;;;;;;;5027032;28;20180;-45
2023/11/24 00:44:47;;;;;;;7.88;7.15;;;;;;;;;;5023552;28;20253;-44
2023/11/24 00:47:13;;;;;;;8.35;7.35;;;;;;;;;;5018744;28;20202;-45
2023/11/24 00:49:39;;;;;;;10.03;8.20;;;;;;;;;;5024297;28;20188;-45
2023/11/24 00:52:05;;;;;;;8.70;7.00;;;;;;;;;;5033029;28;20628;-45
2023/11/24 00:54:32;;;;;;;8.30;7.22;;;;;;;;;;5002285;28;20440;-45
2023/11/24 00:56:58;;;;;;;8.18;7.35;;;;;;;;;;5019103;28;20203;-44
2023/11/24 00:59:23;;;;;;;8.37;7.10;;;;;;;;;;5023726;28;20180;-45
2023/11/24 01:01:49;;;;;;;7.57;6.80;;;;;;;;;;5021156;28;20452;-45
2023/11/24 01:04:16;;;;;;;9.10;7.57;;;;;;;;;;5023608;28;20468;-45
2023/11/24 01:06:42;;;;;;;9.05;8.10;;;;;;;;;;5026444;28;20433;-45
2023/11/24 01:09:11;;;;;;;8.93;7.13;;;;;;;;;;5028943;28;20262;-45
2023/11/24 01:11:37;;;;;;;9.35;8.05;;;;;;;;;;5025284;28;20816;-45
2023/11/24 01:14:04;;;;;;;8.43;7.23;;;;;;;;;;5028178;28;20178;-45
2023/11/24 01:16:30;;;;;;;9.02;8.05;;;;;;;;;;5024412;28;20430;-45
2023/11/24 01:18:57;;;;;;;11.00;9.20;;;;;;;;;;5024060;28;20660;-45
2023/11/24 01:21:24;;;;;;;8.60;7.57;;;;;;;;;;5024058;28;20415;-45
2023/11/24 01:23:50;;;;;;;8.50;7.53;;;;;;;;;;5025259;28;20195;-44
2023/11/24 01:26:16;;;;;;;8.93;7.45;;;;;;;;;;5023072;28;20271;-45
2023/11/24 01:28:43;;;;;;;7.80;6.38;;;;;;;;;;5026301;28;20182;-45
2023/11/24 01:31:09;;;;;;;8.57;7.32;;;;;;;;;;5022627;28;20202;-45
2023/11/24 01:33:36;;;;;;;9.20;7.97;;;;;;;;;;5022326;28;20183;-45
2023/11/24 01:36:02;;;;;;;8.93;7.60;;;;;;;;;;5023600;28;20542;-45
2023/11/24 01:38:28;;;;;;;9.57;8.57;;;;;;;;;;5023673;28;20191;-45
2023/11/24 01:40:54;;;;;;;11.43;10.43;;;;;;;;;;5024741;28;20194;-45
2023/11/24 01:43:20;;;;;;;10.20;9.13;;;;;;;;;;5028371;28;20468;-44
2023/11/24 01:45:46;;;;;;;10.03;9.03;;;;;;;;;;5019957;28;20779;-45
2023/11/24 01:48:15;;;;;;;11.47;9.17;;;;;;;;;;5028147;28;20458;-44
2023/11/24 01:50:42;;;;;;;9.23;8.02;;;;;;;;;;5025851;28;20455;-45
2023/11/24 01:53:08;;;;;;;7.85;7.05;;;;;;;;;;5023556;28;20177;-45
2023/11/24 01:55:35;;;;;;;14.30;11.47;;;;;;;;;;5020021;28;20189;-45
2023/11/24 01:58:01;;;;;;;9.13;8.02;;;;;;;;;;5019980;28;20437;-45
2023/11/24 02:00:27;;;;;;;10.00;9.03;;;;;;;;;;5023295;28;20673;-44
2023/11/24 02:02:53;;;;;;;10.02;8.80;;;;;;;;;;5021983;28;20420;-45
2023/11/24 02:05:20;;;;;;;8.50;7.60;;;;;;;;;;5024011;28;20588;-45
2023/11/24 02:07:46;;;;;;;11.70;10.40;;;;;;;;;;5025295;28;20209;-45
2023/11/24 02:10:13;;;;;;;9.43;8.38;;;;;;;;;;5016342;28;20237;-45
2023/11/24 02:12:40;;;;;;;8.82;7.90;;;;;;;;;;5023663;28;20170;-45
2023/11/24 02:15:09;;;;;;;9.75;8.75;;;;;;;;;;5023070;28;20572;-45
2023/11/24 02:17:38;;;;;;;9.95;8.93;;;;;;;;;;5023220;28;20215;-44
2023/11/24 02:20:08;;;;;;;10.35;9.30;;;;;;;;;;5023338;28;20261;-44
2023/11/24 02:22:39;;;;;;;9.95;8.95;;;;;;;;;;5018242;28;20570;-44
2023/11/24 02:25:05;;;;;;;9.27;8.25;;;;;;;;;;5022446;28;20212;-44
2023/11/24 02:27:31;;;;;;;10.05;8.98;;;;;;;;;;5019409;28;20808;-45
2023/11/24 02:29:58;;;;;;;9.03;7.80;;;;;;;;;;5027459;28;20259;-45
2023/11/24 02:32:24;;;;;;;9.77;8.40;;;;;;;;;;5005477;28;20414;-45
2023/11/24 02:34:50;;;;;;;7.60;6.73;;;;;;;;;;5023155;28;20247;-45
2023/11/24 02:37:16;;;;;;;12.15;9.85;;;;;;;;;;5022676;28;20909;-45
2023/11/24 02:39:42;;;;;;;8.77;7.73;;;;;;;;;;5025786;28;20201;-45
2023/11/24 02:42:07;;;;;;;10.40;8.07;;;;;;;;;;5021059;28;20419;-44
2023/11/24 02:44:33;;;;;;;7.83;6.93;;;;;;;;;;5030939;28;20496;-45
2023/11/24 02:46:59;;;;;;;10.53;9.00;;;;;;;;;;5035192;28;20423;-45
2023/11/24 02:49:26;;;;;;;8.47;7.07;;;;;;;;;;5016956;28;20415;-45
2023/11/24 02:51:52;;;;;;;8.57;7.57;;;;;;;;;;5029866;28;20912;-45
2023/11/24 02:54:18;;;;;;;8.65;7.45;;;;;;;;;;5024604;28;20186;-45
2023/11/24 02:56:44;;;;;;;9.53;8.20;;;;;;;;;;5021212;28;20212;-45
2023/11/24 02:59:10;;;;;;;8.73;7.37;;;;;;;;;;5032735;28;20404;-44
2023/11/24 03:01:35;;;;;;;9.67;7.67;;;;;;;;;;5015278;28;20405;-45
2023/11/24 03:04:02;;;;;;;9.23;7.60;;;;;;;;;;5033098;28;20456;-44
2023/11/24 03:06:28;;;;;;;9.07;6.75;;;;;;;;;;5020570;28;20409;-44
2023/11/24 03:08:54;;;;;;;9.20;7.77;;;;;;;;;;5025075;28;20667;-44
2023/11/24 03:11:21;;;;;;;9.55;7.82;;;;;;;;;;5028973;28;20412;-44
2023/11/24 03:13:47;;;;;;;10.63;8.48;;;;;;;;;;5015238;28;20254;-44
2023/11/24 03:16:13;;;;;;;9.68;7.97;;;;;;;;;;5014727;28;20675;-46
2023/11/24 03:18:39;;;;;;;9.47;8.13;;;;;;;;;;5014699;28;20196;-45
2023/11/24 03:21:06;;;;;;;9.97;8.97;;;;;;;;;;5001412;28;20501;-44
2023/11/24 03:23:32;;;;;;;9.80;8.77;;;;;;;;;;5011033;28;21186;-44
2023/11/24 03:25:58;;;;;;;9.20;8.27;;;;;;;;;;5009174;28;20180;-45
2023/11/24 03:28:24;;;;;;;11.33;9.60;;;;;;;;;;4996250;28;20479;-45
2023/11/24 03:30:50;;;;;;;11.32;9.25;;;;;;;;;;5014859;28;20403;-45
2023/11/24 03:33:16;;;;;;;9.07;8.10;;;;;;;;;;4997552;28;20183;-45
2023/11/24 03:35:42;;;;;;;11.67;9.80;;;;;;;;;;5007872;28;20253;-45
2023/11/24 03:38:08;;;;;;;8.90;7.80;;;;;;;;;;5005460;28;20432;-45
2023/11/24 03:40:34;;;;;;;9.30;7.63;;;;;;;;;;4999744;28;20410;-44
2023/11/24 03:43:02;;;;;;;10.00;8.13;;;;;;;;;;5013551;28;20428;-45
2023/11/24 03:45:28;;;;;;;11.38;8.88;;;;;;;;;;4994725;28;20401;-46
2023/11/24 03:47:54;;;;;;;7.63;6.83;;;;;;;;;;5011409;28;20199;-45
2023/11/24 03:50:20;;;;;;;8.57;7.10;;;;;;;;;;5001594;28;20445;-45
2023/11/24 03:52:46;;;;;;;9.65;8.43;;;;;;;;;;5003323;28;20940;-44
2023/11/24 03:55:13;;;;;;;8.82;7.13;;;;;;;;;;5009458;28;20174;-44
2023/11/24 03:57:40;;;;;;;8.73;7.43;;;;;;;;;;4994134;28;20675;-44
2023/11/24 04:00:06;;;;;;;9.48;8.00;;;;;;;;;;5014276;28;20170;-45
2023/11/24 04:02:32;;;;;;;9.73;7.80;;;;;;;;;;4997532;28;20547;-45
2023/11/24 04:04:58;;;;;;;7.47;6.65;;;;;;;;;;5006898;28;20207;-45
2023/11/24 04:07:25;;;;;;;10.33;8.43;;;;;;;;;;5004997;28;20211;-45
2023/11/24 04:09:51;;;;;;;8.50;7.47;;;;;;;;;;4998868;28;20414;-44
2023/11/24 04:12:17;;;;;;;8.90;7.00;;;;;;;;;;5013491;28;20168;-45
2023/11/24 04:14:43;;;;;;;8.80;7.30;;;;;;;;;;4994583;28;20414;-44
2023/11/24 04:17:09;;;;;;;8.77;7.03;;;;;;;;;;5009987;28;20202;-45
2023/11/24 04:19:36;;;;;;;8.48;6.93;;;;;;;;;;5001679;28;20448;-45
2023/11/24 04:22:02;;;;;;;7.97;6.70;;;;;;;;;;5002146;28;20179;-44
2023/11/24 04:24:28;;;;;;;8.37;7.20;;;;;;;;;;5013146;28;20211;-44
2023/11/24 04:26:54;;;;;;;9.03;7.60;;;;;;;;;;5010884;28;20439;-45
2023/11/24 04:29:21;;;;;;;9.90;8.27;;;;;;;;;;5031223;28;20428;-45
2023/11/24 04:31:48;;;;;;;9.20;8.18;;;;;;;;;;5025181;28;20428;-45
2023/11/24 04:34:14;;;;;;;9.43;8.37;;;;;;;;;;5024515;28;20265;-46
2023/11/24 04:36:40;;;;;;;10.93;9.83;;;;;;;;;;5027191;28;20528;-44
2023/11/24 04:39:06;;;;;;;9.57;8.60;;;;;;;;;;5025364;28;20420;-45
2023/11/24 04:41:32;;;;;;;9.68;8.65;;;;;;;;;;5021858;28;20487;-45
2023/11/24 04:43:58;;;;;;;9.50;8.60;;;;;;;;;;5029189;28;20300;-44
2023/11/24 04:46:24;;;;;;;9.03;7.67;;;;;;;;;;5024318;28;20400;-44
2023/11/24 04:48:50;;;;;;;9.10;8.20;;;;;;;;;;5024797;28;20868;-45
2023/11/24 04:51:16;;;;;;;9.93;8.37;;;;;;;;;;5024299;28;20477;-44
2023/11/24 04:53:42;;;;;;;9.77;8.75;;;;;;;;;;5021333;28;20413;-45
2023/11/24 04:56:08;;;;;;;7.80;6.93;;;;;;;;;;5022236;28;20640;-45
2023/11/24 04:58:34;;;;;;;9.02;7.22;;;;;;;;;;5026296;28;20432;-45
2023/11/24 05:01:00;;;;;;;8.73;7.05;;;;;;;;;;5029247;28;20254;-44
2023/11/24 05:03:26;;;;;;;9.13;7.87;;;;;;;;;;5024416;28;20205;-45
2023/11/24 05:05:52;;;;;;;9.97;7.37;;;;;;;;;;5018481;28;20407;-45
2023/11/24 05:08:18;;;;;;;9.80;8.02;;;;;;;;;;5023237;28;20427;-45
2023/11/24 05:10:44;;;;;;;8.70;7.07;;;;;;;;;;5024423;28;20177;-44
2023/11/24 05:13:10;;;;;;;9.13;6.80;;;;;;;;;;5024400;28;20189;-45
2023/11/24 05:15:36;;;;;;;13.33;9.80;;;;;;;;;;5027326;28;20424;-45
2023/11/24 05:18:04;;;;;;;9.65;8.65;;;;;;;;;;5028920;28;20429;-44
2023/11/24 05:20:30;;;;;;;8.38;7.47;;;;;;;;;;5024803;28;20172;-44
2023/11/24 05:22:55;;;;;;;9.40;8.37;;;;;;;;;;5029378;28;20184;-44
2023/11/24 05:25:22;;;;;;;10.47;8.63;;;;;;;;;;5024052;28;20962;-44
2023/11/24 05:27:48;;;;;;;10.70;9.00;;;;;;;;;;5023814;28;20474;-44
2023/11/24 05:30:15;;;;;;;9.60;8.10;;;;;;;;;;5024010;28;20180;-44
2023/11/24 05:32:41;;;;;;;9.70;8.00;;;;;;;;;;5026548;28;20746;-45
2023/11/24 05:35:07;;;;;;;13.10;11.90;;;;;;;;;;5004295;28;20266;-45
2023/11/24 05:37:33;;;;;;;8.77;7.55;;;;;;;;;;5020329;28;20435;-45
2023/11/24 05:40:01;;;;;;;9.33;7.83;;;;;;;;;;5028544;28;20240;-44
2023/11/24 05:42:27;;;;;;;9.65;7.50;;;;;;;;;;5016295;28;20432;-44
2023/11/24 05:44:54;;;;;;;9.03;6.87;;;;;;;;;;5024118;28;20668;-45
2023/11/24 05:47:20;;;;;;;12.85;11.55;;;;;;;;;;5023281;28;20427;-44
2023/11/24 05:49:48;;;;;;;10.20;9.10;;;;;;;;;;5008053;28;20176;-44
2023/11/24 05:52:16;;;;;;;10.23;7.55;;;;;;;;;;5022169;28;20175;-44
2023/11/24 05:54:42;;;;;;;9.52;8.13;;;;;;;;;;5026102;28;20195;-45
2023/11/24 05:57:09;;;;;;;9.67;8.60;;;;;;;;;;5028350;28;20203;-45
2023/11/24 05:59:35;;;;;;;9.68;8.30;;;;;;;;;;5024832;28;20502;-44
2023/11/24 06:02:03;;;;;;;10.27;8.02;;;;;;;;;;5023390;28;20211;-45
2023/11/24 06:04:29;;;;;;;9.68;7.85;;;;;;;;;;5023448;28;20202;-45
2023/11/24 06:06:55;;;;;;;9.50;6.47;;;;;;;;;;5022375;28;20188;-45
2023/11/24 06:09:21;;;;;;;8.77;7.00;;;;;;;;;;5022991;28;20604;-45
2023/11/24 06:11:47;;;;;;;8.40;6.93;;;;;;;;;;5025220;28;20781;-44
2023/11/24 06:14:13;;;;;;;8.90;8.00;;;;;;;;;;5028068;28;20172;-45
2023/11/24 06:16:39;;;;;;;10.07;9.00;;;;;;;;;;5024748;28;20484;-43
2023/11/24 06:19:05;;;;;;;7.00;5.77;;;;;;;;;;5023673;28;20962;-42
2023/11/24 06:21:31;;;;;;;7.97;5.73;;;;;;;;;;5029710;28;20422;-42
2023/11/24 06:23:57;;;;;;;8.53;6.17;;;;;;;;;;5029858;28;20441;-42
2023/11/24 06:26:23;;;;;;;10.48;8.77;;;;;;;;;;5037326;28;20410;-43
2023/11/24 06:28:49;;;;;;;9.02;7.35;;;;;;;;;;5026507;28;20706;-42
2023/11/24 06:31:15;;;;;;;9.82;7.15;;;;;;;;;;5025589;28;20180;-43
2023/11/24 06:33:42;;;;;;;9.90;8.32;;;;;;;;;;5034795;28;20173;-43
2023/11/24 06:36:08;;;;;;;9.35;6.93;;;;;;;;;;5018162;28;20177;-43
2023/11/24 06:38:34;;;;;;;15.73;12.10;;;;;;;;;;5031147;28;20204;-43
2023/11/24 06:41:00;;;;;;;9.10;7.47;;;;;;;;;;5026384;28;20572;-43
2023/11/24 06:43:26;;;;;;;10.50;9.00;;;;;;;;;;5034274;28;20465;-43
2023/11/24 06:45:52;;;;;;;10.70;9.60;;;;;;;;;;5027839;28;20446;-44
2023/11/24 06:48:18;;;;;;;8.33;6.27;;;;;;;;;;5029011;28;20481;-44
2023/11/24 06:50:44;;;;;;;8.70;7.50;;;;;;;;;;5037005;28;20515;-43
2023/11/24 06:53:11;;;;;;;9.55;6.90;;;;;;;;;;5029704;28;20176;-44
2023/11/24 06:55:37;;;;;;;13.35;10.65;;;;;;;;;;5029409;28;20177;-43
2023/11/24 06:58:05;;;;;;;7.13;5.40;;;;;;;;;;5033359;28;20192;-44
2023/11/24 07:00:32;;;;;;;11.07;7.72;;;;;;;;;;5029441;28;20408;-43
2023/11/24 07:02:58;;;;;;;13.00;11.90;;;;;;;;;;5027234;28;20526;-44
2023/11/24 07:05:24;;;;;;;11.60;10.47;;;;;;;;;;5029196;28;20167;-44
2023/11/24 07:07:51;;;;;;;10.68;9.57;;;;;;;;;;5024563;28;20428;-44
2023/11/24 07:10:17;;;;;;;9.70;8.60;;;;;;;;;;5011871;28;20173;-43
2023/11/24 07:12:43;;;;;;;10.57;9.32;;;;;;;;;;5032963;28;20552;-43
2023/11/24 07:15:10;;;;;;;13.10;11.90;;;;;;;;;;5027189;28;20177;-43
2023/11/24 07:17:36;;;;;;;8.13;7.32;;;;;;;;;;5028075;28;20208;-44
2023/11/24 07:20:03;;;;;;;9.02;8.00;;;;;;;;;;5030057;28;20176;-44
2023/11/24 07:22:30;;;;;;;10.45;9.45;;;;;;;;;;5029315;28;20174;-44
2023/11/24 07:24:56;;;;;;;8.43;7.45;;;;;;;;;;5030267;28;20814;-43
2023/11/24 07:27:22;;;;;;;11.65;9.98;;;;;;;;;;5019438;28;20195;-44
2023/11/24 07:29:48;;;;;;;10.25;9.13;;;;;;;;;;5025525;28;20674;-43
2023/11/24 07:32:14;;;;;;;8.63;7.32;;;;;;;;;;5024364;28;20179;-43
2023/11/24 07:34:40;;;;;;;9.00;7.88;;;;;;;;;;5022898;28;20205;-44
2023/11/24 07:37:06;;;;;;;13.68;12.27;;;;;;;;;;5021864;28;20215;-43
2023/11/24 07:39:36;;;;;;;11.82;9.25;;;;;;;;;;5020636;28;20668;-43
2023/11/24 07:42:02;;;;;;;8.50;7.30;;;;;;;;;;5029303;28;20222;-44
2023/11/24 07:44:31;;;;;;;8.50;6.45;;;;;;;;;;5026350;28;20193;-44
2023/11/24 07:46:57;;;;;;;9.73;8.70;;;;;;;;;;5025623;28;20680;-43
2023/11/24 07:49:23;;;;;;;9.10;7.63;;;;;;;;;;5025623;28;20164;-43
2023/11/24 07:51:49;;;;;;;8.38;5.57;;;;;;;;;;5027400;28;20584;-43
2023/11/24 07:54:15;;;;;;;8.88;6.72;;;;;;;;;;5032845;28;20224;-44
2023/11/24 07:56:41;;;;;;;8.90;7.03;;;;;;;;;;5033072;28;20207;-44
2023/11/24 07:59:09;;;;;;;9.65;6.40;;;;;;;;;;5023281;28;20453;-43
2023/11/24 08:01:36;;;;;;;8.23;5.70;;;;;;;;;;5020958;28;20686;-43
2023/11/24 08:04:02;;;;;;;8.65;5.97;;;;;;;;;;5031153;28;20195;-43
2023/11/24 08:06:28;;;;;;;11.50;8.03;;;;;;;;;;5013951;28;20181;-43
2023/11/24 08:08:56;;;;;;;9.48;7.00;;;;;;;;;;5032523;28;20403;-43
2023/11/24 08:11:23;;;;;;;9.55;6.97;;;;;;;;;;5018879;28;20703;-43
2023/11/24 08:13:49;;;;;;;9.13;7.25;;;;;;;;;;5024189;28;20185;-45
2023/11/24 08:16:16;;;;;;;7.97;6.57;;;;;;;;;;5025716;28;20213;-43
2023/11/24 08:18:42;;;;;;;9.95;7.75;;;;;;;;;;5010985;28;20172;-44
2023/11/24 08:21:09;;;;;;;8.67;7.03;;;;;;;;;;4994375;28;20180;-44
2023/11/24 08:23:35;;;;;;;9.90;6.72;;;;;;;;;;5012352;28;20479;-43
2023/11/24 08:26:03;;;;;;;7.05;4.95;;;;;;;;;;5012953;28;20189;-43
2023/11/24 08:28:29;;;;;;;8.48;6.10;;;;;;;;;;5002682;28;20190;-44
2023/11/24 08:30:55;;;;;;;8.68;6.05;;;;;;;;;;5001078;28;20583;-44
2023/11/24 08:33:22;;;;;;;8.43;6.07;;;;;;;;;;5010903;28;20176;-42
2023/11/24 08:35:48;;;;;;;8.52;6.43;;;;;;;;;;4993844;28;20162;-43
2023/11/24 08:38:14;;;;;;;10.25;7.50;;;;;;;;;;5012050;28;20682;-43
2023/11/24 08:40:40;;;;;;;7.93;6.07;;;;;;;;;;4999215;28;20273;-43
2023/11/24 08:43:06;;;;;;;9.18;6.95;;;;;;;;;;5004358;28;20459;-43
2023/11/24 08:45:35;;;;;;;16.53;13.50;;;;;;;;;;5009722;28;20634;-43
2023/11/24 08:48:01;;;;;;;10.13;9.13;;;;;;;;;;4984839;28;20441;-43
2023/11/24 08:50:28;;;;;;;10.65;9.65;;;;;;;;;;5022943;28;20167;-43
2023/11/24 08:52:54;;;;;;;14.25;12.25;;;;;;;;;;5020448;28;20504;-43
2023/11/24 08:55:20;;;;;;;13.60;10.60;;;;;;;;;;5023406;28;20219;-43
2023/11/24 08:57:46;;;;;;;9.40;7.73;;;;;;;;;;5024485;28;20293;-43
2023/11/24 09:00:14;;;;;;;12.93;11.15;;;;;;;;;;5021666;28;20447;-43
2023/11/24 09:02:41;;;;;;;8.13;7.30;;;;;;;;;;5023267;28;20180;-43
2023/11/24 09:05:08;;;;;;;9.88;7.97;;;;;;;;;;5019839;28;20227;-43
2023/11/24 09:07:34;;;;;;;10.07;8.27;;;;;;;;;;5021735;28;20184;-43
2023/11/24 09:10:02;;;;;;;9.23;7.35;;;;;;;;;;5021083;28;20613;-43
2023/11/24 09:12:28;;;;;;;8.63;6.55;;;;;;;;;;5021118;28;20180;-43
2023/11/24 09:14:54;;;;;;;8.00;6.07;;;;;;;;;;5003351;28;20178;-43
2023/11/24 09:17:23;;;;;;;9.77;8.50;;;;;;;;;;5025925;28;20463;-43
2023/11/24 09:19:49;;;;;;;10.63;9.60;;;;;;;;;;5022925;28;20858;-43
2023/11/24 09:22:15;;;;;;;9.73;8.82;;;;;;;;;;5018299;28;20196;-43
2023/11/24 09:24:41;;;;;;;10.47;9.57;;;;;;;;;;5019513;28;20239;-43
2023/11/24 09:27:07;;;;;;;11.40;10.40;;;;;;;;;;5004228;28;20434;-43
2023/11/24 09:29:33;;;;;;;10.60;9.67;;;;;;;;;;5024415;28;20183;-43
2023/11/24 09:31:59;;;;;;;12.70;11.60;;;;;;;;;;5021593;28;20909;-43
2023/11/24 09:34:25;;;;;;;12.73;11.55;;;;;;;;;;5024245;28;20415;-43
2023/11/24 09:36:51;;;;;;;11.05;10.05;;;;;;;;;;5021161;28;20214;-43
2023/11/24 09:39:17;;;;;;;11.77;10.67;;;;;;;;;;5023689;28;20176;-43
2023/11/24 09:41:48;;;;;;;9.00;8.17;;;;;;;;;;5025864;28;20421;-43
2023/11/24 09:44:15;;;;;;;10.82;9.75;;;;;;;;;;5014414;28;20761;-43
2023/11/24 09:46:41;;;;;;;9.18;8.18;;;;;;;;;;5031908;28;20713;-43
2023/11/24 09:49:08;;;;;;;10.45;9.35;;;;;;;;;;5013853;28;20211;-43
2023/11/24 09:51:36;;;;;;;10.23;9.13;;;;;;;;;;5026313;28;20179;-43
2023/11/24 09:54:03;;;;;;;9.25;7.72;;;;;;;;;;5021330;28;20178;-44
2023/11/24 09:56:29;;;;;;;9.95;7.55;;;;;;;;;;5017663;28;20261;-44
2023/11/24 09:58:55;;;;;;;9.70;7.22;;;;;;;;;;5028838;28;20173;-44
2023/11/24 10:01:21;;;;;;;8.98;6.50;;;;;;;;;;5012351;28;20200;-43
2023/11/24 10:03:50;;;;;;;9.15;6.53;;;;;;;;;;4994964;28;20581;-43
2023/11/24 10:06:16;;;;;;;7.38;5.55;;;;;;;;;;5006422;28;20176;-43
2023/11/24 10:08:45;;;;;;;7.15;5.05;;;;;;;;;;5001761;28;20594;-44
2023/11/24 10:11:12;;;;;;;8.30;5.53;;;;;;;;;;4998939;28;20170;-43
2023/11/24 10:13:39;;;;;;;7.28;5.45;;;;;;;;;;5009618;28;20194;-43
2023/11/24 10:16:06;;;;;;;10.23;8.23;;;;;;;;;;4992797;28;20175;-43
2023/11/24 10:18:32;;;;;;;8.90;7.30;;;;;;;;;;5010629;28;20340;-43
2023/11/24 10:20:59;;;;;;;8.90;7.32;;;;;;;;;;4997590;28;20187;-43
2023/11/24 10:23:27;;;;;;;9.05;7.72;;;;;;;;;;5007422;28;20178;-43
2023/11/24 10:25:53;;;;;;;10.02;8.30;;;;;;;;;;5005347;28;20192;-43
2023/11/24 10:28:19;;;;;;;9.90;7.57;;;;;;;;;;5010909;28;20217;-43
2023/11/24 10:30:46;;;;;;;9.85;7.07;;;;;;;;;;5011789;28;20980;-43
2023/11/24 10:33:17;;;;;;;9.52;7.07;;;;;;;;;;4993159;28;20259;-43
2023/11/24 10:35:43;;;;;;;9.52;7.20;;;;;;;;;;5005964;28;20213;-44
2023/11/24 10:38:10;;;;;;;12.73;8.73;;;;;;;;;;5000020;28;20237;-43
2023/11/24 10:40:38;;;;;;;13.02;9.27;;;;;;;;;;4997425;28;20411;-43
2023/11/24 10:43:06;;;;;;;10.00;7.90;;;;;;;;;;5007091;28;20171;-43
2023/11/24 10:45:32;;;;;;;13.30;10.07;;;;;;;;;;4991719;28;20170;-43
2023/11/24 10:48:09;;;;;;;11.90;8.13;;;;;;;;;;5010300;28;20188;-43
2023/11/24 10:50:37;;;;;;;25.40;16.77;;;;;;;;;;4995905;28;20239;-43
2023/11/24 10:53:11;;;;;;;8.90;6.50;;;;;;;;;;4998694;28;20249;-43
2023/11/24 10:55:38;;;;;;;13.55;10.35;;;;;;;;;;5001365;28;20183;-43
2023/11/24 10:58:06;;;;;;;9.23;6.95;;;;;;;;;;5005117;28;20205;-43
2023/11/24 11:00:32;;;;;;;9.32;6.72;;;;;;;;;;4993902;28;20640;-43
2023/11/24 11:02:58;;;;;;;9.35;6.55;;;;;;;;;;5011445;28;20256;-43
2023/11/24 11:05:49;;;;;;;10.00;7.22;;;;;;;;;;4993182;28;20200;-43
2023/11/24 11:08:20;;;;;;;8.43;5.60;;;;;;;;;;5012514;28;20198;-43
2023/11/24 11:11:12;;;;;;;8.27;5.63;;;;;;;;;;5001121;28;20184;-43
2023/11/24 11:13:42;;;;;;;8.85;5.97;;;;;;;;;;5009065;28;20675;-43
2023/11/24 11:16:08;;;;;;;10.18;7.32;;;;;;;;;;5004879;28;20181;-43
2023/11/24 11:18:35;;;;;;;9.02;6.68;;;;;;;;;;5000626;28;20197;-43
2023/11/24 11:21:12;;;;;;;10.13;7.00;;;;;;;;;;5011265;28;20177;-43
2023/11/24 11:23:38;;;;;;;8.23;5.80;;;;;;;;;;5012633;28;20227;-43
2023/11/24 11:26:06;;;;;;;10.30;8.20;;;;;;;;;;5014397;28;20183;-43
2023/11/24 11:28:35;;;;;;;8.68;7.18;;;;;;;;;;4999306;28;20227;-44
2023/11/24 11:31:20;;;;;;;10.93;9.88;;;;;;;;;;5006604;28;20353;-44
2023/11/24 11:33:47;;;;;;;12.32;11.25;;;;;;;;;;5004522;28;20230;-43
2023/11/24 11:36:14;;;;;;;13.60;12.50;;;;;;;;;;5000670;28;20211;-44
2023/11/24 11:38:43;;;;;;;14.93;13.63;;;;;;;;;;5012304;28;20179;-43
2023/11/24 11:41:09;;;;;;;11.90;10.82;;;;;;;;;;4994903;28;20633;-44
2023/11/24 11:43:54;;;;;;;12.93;11.73;;;;;;;;;;5012746;28;20552;-43
2023/11/24 11:46:22;;;;;;;14.10;12.75;;;;;;;;;;4997229;28;20179;-44
2023/11/24 11:48:48;;;;;;;12.40;11.30;;;;;;;;;;5007629;28;20164;-43
2023/11/24 11:51:17;;;;;;;10.93;9.93;;;;;;;;;;5005140;28;20173;-43
2023/11/24 11:53:42;;;;;;;10.25;9.35;;;;;;;;;;4999703;28;20182;-44
2023/11/24 11:56:10;;;;;;;13.20;11.80;;;;;;;;;;5012277;28;20176;-43
2023/11/24 11:58:37;;;;;;;11.20;10.20;;;;;;;;;;4993662;28;20419;-43
2023/11/24 12:01:04;;;;;;;12.52;11.35;;;;;;;;;;5011434;28;20175;-43
2023/11/24 12:03:30;;;;;;;13.00;11.90;;;;;;;;;;5000634;28;20531;-43
2023/11/24 12:05:58;;;;;;;13.15;12.00;;;;;;;;;;5003474;28;20670;-43
2023/11/24 12:08:27;;;;;;;11.40;10.30;;;;;;;;;;5008377;28;20207;-43
2023/11/24 12:10:53;;;;;;;11.57;10.35;;;;;;;;;;4995915;28;20187;-43
2023/11/24 12:13:21;;;;;;;9.13;8.23;;;;;;;;;;5013959;28;20171;-43
2023/11/24 12:15:48;;;;;;;10.30;9.13;;;;;;;;;;4995921;28;20556;-43
2023/11/24 12:18:15;;;;;;;9.77;8.77;;;;;;;;;;5007158;28;20192;-43
2023/11/24 12:20:41;;;;;;;10.90;9.80;;;;;;;;;;5012273;28;20185;-43
2023/11/24 12:23:10;;;;;;;11.67;10.47;;;;;;;;;;5012837;28;20179;-43
2023/11/24 12:25:37;;;;;;;12.32;10.98;;;;;;;;;;5011050;28;20935;-43
2023/11/24 12:28:09;;;;;;;10.85;8.95;;;;;;;;;;4994235;28;20541;-43
2023/11/24 12:30:41;;;;;;;11.23;10.10;;;;;;;;;;5012547;28;20209;-43
2023/11/24 12:33:08;;;;;;;10.90;9.80;;;;;;;;;;4997940;28;20194;-43
2023/11/24 12:35:34;;;;;;;15.35;13.70;;;;;;;;;;5004984;28;20172;-43
2023/11/24 12:38:00;;;;;;;10.63;9.52;;;;;;;;;;5005654;28;20205;-43
2023/11/24 12:40:27;;;;;;;12.17;11.00;;;;;;;;;;4997183;28;20202;-43
2023/11/24 12:42:59;;;;;;;11.02;9.93;;;;;;;;;;5013310;28;20415;-43
2023/11/24 12:45:25;;;;;;;10.10;9.10;;;;;;;;;;4993970;28;20736;-43
2023/11/24 12:47:51;;;;;;;9.23;8.30;;;;;;;;;;5009579;28;20289;-43
2023/11/24 12:50:17;;;;;;;11.32;10.20;;;;;;;;;;5000932;28;20169;-43
2023/11/24 12:52:45;;;;;;;12.48;11.43;;;;;;;;;;5001712;28;20520;-43
2023/11/24 12:55:11;;;;;;;12.75;11.55;;;;;;;;;;5008640;28;20216;-43
2023/11/24 12:57:38;;;;;;;11.83;10.70;;;;;;;;;;4993421;28;20220;-43
2023/11/24 13:00:14;;;;;;;12.32;11.23;;;;;;;;;;5013081;28;20432;-43
2023/11/24 13:02:41;;;;;;;14.48;13.15;;;;;;;;;;4995488;28;20186;-43
2023/11/24 13:05:07;;;;;;;12.52;11.32;;;;;;;;;;5006329;28;20206;-43
2023/11/24 13:07:35;;;;;;;11.20;10.15;;;;;;;;;;5003159;28;20784;-43
2023/11/24 13:10:01;;;;;;;9.45;8.30;;;;;;;;;;4998754;28;20187;-43
2023/11/24 13:12:27;;;;;;;12.20;10.98;;;;;;;;;;5011245;28;20176;-43
2023/11/24 13:14:53;;;;;;;9.33;8.43;;;;;;;;;;4993236;28;20672;-43
2023/11/24 13:17:20;;;;;;;14.25;12.85;;;;;;;;;;5009730;28;20944;-43
2023/11/24 13:19:48;;;;;;;12.75;11.55;;;;;;;;;;4999321;28;20179;-43
2023/11/24 13:22:14;;;;;;;11.27;10.18;;;;;;;;;;5002410;28;20165;-43
2023/11/24 13:24:40;;;;;;;10.68;9.68;;;;;;;;;;5012059;28;20621;-43
2023/11/24 13:27:06;;;;;;;13.38;12.07;;;;;;;;;;5010825;28;20275;-43
2023/11/24 13:29:33;;;;;;;9.88;8.88;;;;;;;;;;4991848;28;20190;-44
2023/11/24 13:31:59;;;;;;;11.23;10.13;;;;;;;;;;5009797;28;20175;-43
2023/11/24 13:34:25;;;;;;;11.98;10.88;;;;;;;;;;4999209;28;20177;-43
2023/11/24 13:36:51;;;;;;;12.32;11.23;;;;;;;;;;5001466;28;20689;-43
2023/11/24 13:39:22;;;;;;;10.52;9.60;;;;;;;;;;5007111;28;20668;-43
2023/11/24 13:41:52;;;;;;;13.07;11.82;;;;;;;;;;4994437;28;20192;-43
2023/11/24 13:44:21;;;;;;;12.05;10.95;;;;;;;;;;5012262;28;20616;-43
2023/11/24 13:46:48;;;;;;;14.00;12.70;;;;;;;;;;4993585;28;20235;-43
2023/11/24 13:49:14;;;;;;;11.80;10.75;;;;;;;;;;5006575;28;20784;-43
2023/11/24 13:51:44;;;;;;;9.98;8.90;;;;;;;;;;5001826;28;20195;-43
2023/11/24 13:54:13;;;;;;;12.27;11.07;;;;;;;;;;4999467;28;20228;-43
2023/11/24 13:56:40;;;;;;;11.85;10.65;;;;;;;;;;5008534;28;20209;-43
2023/11/24 13:59:09;;;;;;;11.95;10.40;;;;;;;;;;4992407;28;20161;-43
2023/11/24 14:01:36;;;;;;;10.70;9.18;;;;;;;;;;5011624;28;20177;-43
2023/11/24 14:04:03;;;;;;;12.38;11.20;;;;;;;;;;4996658;28;20192;-43
2023/11/24 14:06:30;;;;;;;9.95;8.43;;;;;;;;;;5003475;28;20650;-42
2023/11/24 14:08:58;;;;;;;12.48;11.23;;;;;;;;;;5004082;28;20185;-43
2023/11/24 14:11:25;;;;;;;12.40;10.88;;;;;;;;;;4995976;28;20179;-43
2023/11/24 14:13:51;;;;;;;9.85;8.00;;;;;;;;;;5011754;28;20668;-42
2023/11/24 14:16:17;;;;;;;10.38;8.10;;;;;;;;;;4992227;28;20188;-43
2023/11/24 14:18:43;;;;;;;9.77;8.43;;;;;;;;;;5007863;28;20704;-43
2023/11/24 14:21:10;;;;;;;10.37;9.20;;;;;;;;;;5000570;28;20419;-42
2023/11/24 14:23:36;;;;;;;10.30;9.13;;;;;;;;;;5008629;28;20505;-42
2023/11/24 14:26:03;;;;;;;10.47;8.67;;;;;;;;;;5007844;28;20185;-43
2023/11/24 14:28:29;;;;;;;9.77;6.68;;;;;;;;;;5001730;28;21153;-43
2023/11/24 14:30:55;;;;;;;9.53;7.13;;;;;;;;;;4992437;28;20177;-42
2023/11/24 14:33:24;;;;;;;9.73;7.10;;;;;;;;;;5007647;28;20818;-43